createdAt,value
2022-11-17T00:00:19.666Z,10.08
2022-11-17T00:02:47.927Z,9.96
2022-11-17T00:05:15.218Z,10.03
2022-11-17T00:07:44.809Z,9.96
2022-11-17T00:10:15.439Z,9.93
2022-11-17T00:13:01.434Z,9.76
2022-11-17T00:15:28.633Z,9.49
2022-11-17T00:18:14.035Z,9.38
2022-11-17T00:21:00.460Z,9.41
2022-11-17T00:23:47.176Z,9.24
2022-11-17T00:26:19.154Z,9.15
2022-11-17T00:28:46.220Z,9.25
2022-11-17T00:31:33.185Z,9.18
2022-11-17T00:34:06.444Z,9.25
2022-11-17T00:36:40.072Z,9.34
2022-11-17T00:39:08.426Z,9.23
2022-11-17T00:41:35.814Z,9.42
2022-11-17T00:44:02.698Z,9.44
2022-11-17T00:46:30.101Z,9.52
2022-11-17T00:48:56.982Z,9.59
2022-11-17T00:51:25.546Z,9.71
2022-11-17T00:53:52.755Z,9.78
2022-11-17T00:56:19.736Z,9.71
2022-11-17T00:58:46.757Z,9.67
2022-11-17T01:01:14.380Z,9.71
2022-11-17T01:03:41.562Z,9.82
2022-11-17T01:06:18.539Z,9.93
2022-11-17T01:08:45.821Z,9.98
2022-11-17T01:11:13.942Z,9.93
2022-11-17T01:13:42.070Z,10.00
2022-11-17T01:16:14.373Z,9.95
2022-11-17T01:18:42.507Z,9.85
2022-11-17T01:21:21.870Z,9.73
2022-11-17T01:23:51.469Z,9.66
2022-11-17T01:26:20.681Z,9.69
2022-11-17T01:28:48.765Z,9.77
2022-11-17T01:31:20.775Z,9.91
2022-11-17T01:33:48.692Z,9.87
2022-11-17T01:36:22.124Z,9.90
2022-11-17T01:38:49.459Z,9.90
2022-11-17T01:41:25.184Z,9.69
2022-11-17T01:43:54.965Z,9.56
2022-11-17T01:46:37.221Z,9.50
2022-11-17T01:49:04.040Z,9.52
2022-11-17T01:51:35.356Z,9.48
2022-11-17T01:54:02.937Z,9.59
2022-11-17T01:56:38.917Z,9.70
2022-11-17T01:59:11.550Z,9.74
2022-11-17T02:01:55.619Z,9.72
2022-11-17T02:04:26.659Z,9.67
2022-11-17T02:07:14.493Z,9.69
2022-11-17T02:09:42.581Z,9.82
2022-11-17T02:12:12.952Z,9.73
2022-11-17T02:14:40.521Z,9.76
2022-11-17T02:17:14.048Z,9.68
2022-11-17T02:19:44.382Z,9.52
2022-11-17T02:22:33.746Z,9.59
2022-11-17T02:25:15.714Z,9.63
2022-11-17T02:28:11.458Z,9.64
2022-11-17T02:30:49.200Z,9.74
2022-11-17T02:33:37.811Z,9.76
2022-11-17T02:36:11.820Z,9.72
2022-11-17T02:38:56.174Z,9.68
2022-11-17T02:41:58.378Z,9.72
2022-11-17T02:44:33.707Z,9.76
2022-11-17T02:47:20.286Z,9.81
2022-11-17T02:49:53.804Z,9.93
2022-11-17T02:52:22.027Z,9.97
2022-11-17T02:54:48.929Z,10.06
2022-11-17T02:57:33.420Z,10.07
2022-11-17T03:00:04.238Z,10.07
2022-11-17T03:02:53.068Z,10.02
2022-11-17T03:05:26.841Z,9.74
2022-11-17T03:08:11.990Z,9.75
2022-11-17T03:11:02.959Z,9.74
2022-11-17T03:13:48.471Z,9.68
2022-11-17T03:16:27.682Z,9.68
2022-11-17T03:19:09.656Z,9.70
2022-11-17T03:22:09.407Z,9.62
2022-11-17T03:24:49.424Z,9.60
2022-11-17T03:27:25.610Z,9.68
2022-11-17T03:29:59.787Z,9.64
2022-11-17T03:32:31.004Z,9.69
2022-11-17T03:35:03.305Z,9.74
2022-11-17T03:37:34.064Z,9.71
2022-11-17T03:40:09.045Z,9.77
2022-11-17T03:42:40.931Z,9.82
2022-11-17T03:45:22.078Z,9.77
2022-11-17T03:47:53.748Z,9.97
2022-11-17T03:50:30.321Z,9.98
2022-11-17T03:52:57.514Z,9.96
2022-11-17T03:55:30.961Z,9.83
2022-11-17T03:58:05.276Z,9.96
2022-11-17T04:00:34.956Z,9.92
2022-11-17T04:03:01.808Z,9.83
2022-11-17T04:05:28.616Z,9.81
2022-11-17T04:07:55.514Z,9.62
2022-11-17T04:10:25.854Z,9.61
2022-11-17T04:13:12.807Z,9.58
2022-11-17T04:15:58.963Z,9.64
2022-11-17T04:18:26.656Z,9.55
2022-11-17T04:20:55.918Z,9.47
2022-11-17T04:23:24.044Z,9.41
2022-11-17T04:26:12.911Z,9.24
2022-11-17T04:28:50.917Z,9.23
2022-11-17T04:31:38.044Z,9.32
2022-11-17T04:34:06.135Z,9.32
2022-11-17T04:36:37.186Z,9.29
2022-11-17T04:39:04.444Z,9.27
2022-11-17T04:41:49.823Z,9.24
2022-11-17T04:44:18.177Z,9.25
2022-11-17T04:46:46.271Z,9.28
2022-11-17T04:49:15.090Z,9.34
2022-11-17T04:51:42.591Z,9.40
2022-11-17T04:54:11.056Z,9.54
2022-11-17T04:56:39.632Z,9.53
2022-11-17T04:59:07.232Z,9.66
2022-11-17T05:01:34.388Z,9.62
2022-11-17T05:04:13.179Z,9.76
2022-11-17T05:06:43.812Z,9.66
2022-11-17T05:09:13.745Z,9.58
2022-11-17T05:12:00.320Z,9.69
2022-11-17T05:14:28.623Z,9.59
2022-11-17T05:17:11.952Z,9.83
2022-11-17T05:19:40.931Z,9.86
2022-11-17T05:22:27.857Z,9.97
2022-11-17T05:24:56.259Z,9.87
2022-11-17T05:27:23.727Z,9.78
2022-11-17T05:29:50.580Z,9.73
2022-11-17T05:32:17.893Z,9.78
2022-11-17T05:34:45.127Z,9.72
2022-11-17T05:37:12.314Z,9.77
2022-11-17T05:39:39.181Z,9.92
2022-11-17T05:42:06.260Z,9.83
2022-11-17T05:44:33.095Z,9.87
2022-11-17T05:47:02.410Z,9.92
2022-11-17T05:49:33.364Z,10.08
2022-11-17T05:52:00.933Z,10.18
2022-11-17T05:54:27.869Z,10.25
2022-11-17T05:57:01.065Z,10.31
2022-11-17T05:59:46.062Z,10.19
2022-11-17T06:02:21.517Z,10.22
2022-11-17T06:04:49.700Z,10.17
2022-11-17T06:07:18.080Z,10.04
2022-11-17T06:09:46.371Z,10.10
2022-11-17T06:12:13.420Z,10.21
2022-11-17T06:14:40.273Z,10.25
2022-11-17T06:17:22.130Z,10.36
2022-11-17T06:19:57.962Z,10.28
2022-11-17T06:22:27.608Z,10.35
2022-11-17T06:24:55.611Z,10.38
2022-11-17T06:27:23.274Z,10.54
2022-11-17T06:29:50.455Z,10.52
2022-11-17T06:32:18.286Z,10.39
2022-11-17T06:34:54.832Z,10.19
2022-11-17T06:37:25.079Z,9.98
2022-11-17T06:39:52.423Z,10.24
2022-11-17T06:42:19.605Z,10.25
2022-11-17T06:44:46.570Z,10.29
2022-11-17T06:47:13.456Z,10.22
2022-11-17T06:49:40.380Z,10.37
2022-11-17T06:52:09.280Z,10.37
2022-11-17T06:54:36.240Z,10.42
2022-11-17T06:57:03.993Z,10.52
2022-11-17T06:59:30.909Z,10.52
2022-11-17T07:01:57.757Z,10.40
2022-11-17T07:08:00.395Z,10.51
2022-11-17T07:10:28.574Z,10.59
2022-11-17T07:12:58.575Z,10.58
2022-11-17T07:15:27.200Z,10.71
2022-11-17T07:17:54.327Z,10.61
2022-11-17T07:20:21.521Z,10.59
2022-11-17T07:22:48.803Z,10.48
2022-11-17T07:25:21.055Z,10.55
2022-11-17T07:27:57.188Z,10.47
2022-11-17T07:30:24.240Z,10.57
2022-11-17T07:32:54.641Z,10.57
2022-11-17T07:35:22.089Z,10.68
2022-11-17T07:37:49.144Z,10.53
2022-11-17T07:40:16.353Z,10.67
2022-11-17T07:42:48.913Z,10.67
2022-11-17T07:45:17.102Z,10.74
2022-11-17T07:47:44.104Z,10.85
2022-11-17T07:50:11.606Z,10.95
2022-11-17T07:52:41.398Z,11.09
2022-11-17T07:55:08.785Z,11.08
2022-11-17T07:57:36.728Z,10.91
2022-11-17T08:00:07.556Z,11.08
2022-11-17T08:02:43.846Z,11.11
2022-11-17T08:05:12.402Z,11.08
2022-11-17T08:07:39.557Z,11.09
2022-11-17T08:10:08.312Z,11.16
2022-11-17T08:12:35.372Z,11.19
2022-11-17T08:15:02.505Z,11.17
2022-11-17T08:17:31.573Z,11.26
2022-11-17T08:20:00.956Z,11.19
2022-11-17T08:22:29.899Z,11.28
2022-11-17T08:24:56.877Z,11.24
2022-11-17T08:27:25.086Z,11.26
2022-11-17T08:29:52.871Z,11.34
2022-11-17T08:32:20.449Z,11.35
2022-11-17T08:34:47.744Z,11.32
2022-11-17T08:37:15.004Z,11.25
2022-11-17T08:39:42.046Z,11.29
2022-11-17T08:42:09.142Z,11.35
2022-11-17T08:44:37.495Z,11.24
2022-11-17T08:47:04.414Z,11.28
2022-11-17T08:49:31.250Z,11.37
2022-11-17T08:51:58.177Z,11.35
2022-11-17T08:54:25.159Z,11.37
2022-11-17T08:56:57.353Z,11.41
2022-11-17T08:59:26.060Z,11.37
2022-11-17T09:01:53.299Z,11.23
2022-11-17T09:04:20.412Z,11.03
2022-11-17T09:06:47.379Z,11.09
2022-11-17T09:09:17.083Z,11.13
2022-11-17T09:11:44.023Z,11.13
2022-11-17T09:14:10.972Z,11.09
2022-11-17T09:16:38.403Z,11.00
2022-11-17T09:19:05.843Z,11.13
2022-11-17T09:21:34.078Z,11.15
2022-11-17T09:24:01.337Z,11.20
2022-11-17T09:26:28.335Z,11.16
2022-11-17T09:28:55.495Z,11.20
2022-11-17T09:31:23.682Z,11.28
2022-11-17T09:33:50.833Z,11.18
2022-11-17T09:36:18.323Z,11.25
2022-11-17T09:38:46.810Z,11.25
2022-11-17T09:41:16.575Z,11.45
2022-11-17T09:43:49.705Z,11.43
2022-11-17T09:46:25.666Z,11.63
2022-11-17T09:49:12.429Z,11.64
2022-11-17T09:51:44.965Z,11.63
2022-11-17T09:54:43.232Z,11.63
2022-11-17T09:57:37.441Z,11.76
2022-11-17T10:00:19.642Z,11.86
2022-11-17T10:02:46.846Z,11.83
2022-11-17T10:05:28.055Z,11.72
2022-11-17T10:08:00.393Z,11.72
2022-11-17T10:10:45.618Z,11.62
2022-11-17T10:13:33.823Z,11.92
2022-11-17T10:16:08.003Z,12.00
2022-11-17T10:18:38.341Z,12.01
2022-11-17T10:21:07.349Z,11.95
2022-11-17T10:23:41.156Z,11.81
2022-11-17T10:26:16.009Z,11.89
2022-11-17T10:28:47.183Z,11.86
2022-11-17T10:31:20.397Z,11.91
2022-11-17T10:33:50.314Z,12.19
2022-11-17T10:36:29.049Z,12.23
2022-11-17T10:38:59.316Z,12.20
2022-11-17T10:41:40.910Z,12.05
2022-11-17T10:44:30.664Z,12.22
2022-11-17T10:47:04.763Z,12.33
2022-11-17T10:49:35.259Z,12.78
2022-11-17T10:52:06.983Z,12.81
2022-11-17T10:54:34.105Z,12.75
2022-11-17T10:57:05.627Z,13.00
2022-11-17T10:59:44.378Z,13.13
2022-11-17T11:02:31.027Z,13.19
2022-11-17T11:05:14.092Z,13.27
2022-11-17T11:07:41.753Z,13.53
2022-11-17T11:10:20.591Z,13.57
2022-11-17T11:13:09.093Z,13.65
2022-11-17T11:15:37.291Z,13.78
2022-11-17T11:18:15.876Z,14.00
2022-11-17T11:21:13.420Z,14.18
2022-11-17T11:23:46.410Z,14.29
2022-11-17T11:26:25.562Z,14.49
2022-11-17T11:29:07.847Z,14.65
2022-11-17T11:32:11.666Z,14.64
2022-11-17T11:34:54.395Z,14.72
2022-11-17T11:37:28.628Z,14.87
2022-11-17T11:40:27.184Z,14.82
2022-11-17T11:43:24.456Z,14.94
2022-11-17T11:46:01.357Z,14.96
2022-11-17T11:48:57.131Z,14.78
2022-11-17T11:51:38.375Z,14.73
2022-11-17T11:54:30.975Z,14.84
2022-11-17T11:56:58.145Z,14.94
2022-11-17T11:59:45.679Z,14.98
2022-11-17T12:02:12.774Z,15.02
2022-11-17T12:04:52.673Z,14.98
2022-11-17T12:07:41.329Z,14.95
2022-11-17T12:10:30.069Z,15.00
2022-11-17T12:13:00.327Z,14.84
2022-11-17T12:15:27.745Z,14.95
2022-11-17T12:18:22.353Z,14.78
2022-11-17T12:20:57.814Z,14.97
2022-11-17T12:23:31.037Z,14.98
2022-11-17T12:26:03.109Z,14.82
2022-11-17T12:28:40.772Z,14.78
2022-11-17T12:31:13.110Z,14.82
2022-11-17T12:33:52.016Z,14.88
2022-11-17T12:36:30.193Z,14.91
2022-11-17T12:38:59.977Z,15.06
2022-11-17T12:41:48.645Z,15.00
2022-11-17T12:44:37.471Z,15.08
2022-11-17T12:47:15.272Z,15.04
2022-11-17T12:49:57.296Z,15.02
2022-11-17T12:52:52.111Z,15.05
2022-11-17T12:55:42.299Z,14.72
2022-11-17T12:58:10.836Z,14.99
2022-11-17T13:00:53.383Z,14.94
2022-11-17T13:03:36.902Z,14.98
2022-11-17T13:06:33.747Z,14.82
2022-11-17T13:09:01.124Z,14.82
2022-11-17T13:11:29.003Z,14.98
2022-11-17T13:14:14.477Z,14.92
2022-11-17T13:16:50.008Z,15.00
2022-11-17T13:19:40.428Z,15.10
2022-11-17T13:22:21.576Z,15.14
2022-11-17T13:24:50.722Z,14.90
2022-11-17T13:27:25.516Z,15.04
2022-11-17T13:29:53.335Z,15.00
2022-11-17T13:32:23.458Z,15.06
2022-11-17T13:34:59.965Z,14.95
2022-11-17T13:37:28.818Z,15.01
2022-11-17T13:40:20.354Z,14.99
2022-11-17T13:42:47.888Z,14.86
2022-11-17T13:45:16.072Z,14.97
2022-11-17T13:47:48.960Z,14.88
2022-11-17T13:50:21.716Z,14.82
2022-11-17T13:52:53.577Z,14.57
2022-11-17T13:55:21.881Z,14.71
2022-11-17T13:57:54.250Z,14.64
2022-11-17T14:00:22.974Z,14.60
2022-11-17T14:02:57.424Z,14.55
2022-11-17T14:05:27.620Z,14.51
2022-11-17T14:07:57.013Z,14.50
2022-11-17T14:10:33.119Z,14.28
2022-11-17T14:13:02.919Z,14.48
2022-11-17T14:15:53.284Z,14.42
2022-11-17T14:18:43.442Z,14.26
2022-11-17T14:21:16.867Z,14.18
2022-11-17T14:23:44.843Z,14.29
2022-11-17T14:26:17.907Z,14.23
2022-11-17T14:28:44.926Z,14.04
2022-11-17T14:31:13.904Z,14.08
2022-11-17T14:33:41.345Z,14.11
2022-11-17T14:36:16.608Z,13.80
2022-11-17T14:38:47.211Z,13.74
2022-11-17T14:41:18.289Z,13.84
2022-11-17T14:44:08.647Z,13.83
2022-11-17T14:46:35.906Z,13.85
2022-11-17T14:49:05.495Z,13.81
2022-11-17T14:51:33.099Z,13.80
2022-11-17T14:54:01.344Z,13.75
2022-11-17T14:56:28.295Z,13.68
2022-11-17T14:59:02.259Z,13.51
2022-11-17T15:01:31.773Z,13.52
2022-11-17T15:04:27.066Z,13.48
2022-11-17T15:07:17.053Z,13.54
2022-11-17T15:09:45.635Z,13.36
2022-11-17T15:12:12.562Z,13.33
2022-11-17T15:14:39.484Z,13.31
2022-11-17T15:17:11.296Z,13.24
2022-11-17T15:19:41.042Z,13.29
2022-11-17T15:22:07.945Z,13.16
2022-11-17T15:24:34.814Z,13.22
2022-11-17T15:27:02.132Z,12.81
2022-11-17T15:29:31.492Z,13.05
2022-11-17T15:31:58.415Z,12.95
2022-11-17T15:34:25.288Z,12.93
2022-11-17T15:36:52.563Z,12.98
2022-11-17T15:39:20.738Z,12.88
2022-11-17T15:41:48.875Z,12.95
2022-11-17T15:44:15.965Z,12.85
2022-11-17T15:46:47.079Z,12.83
2022-11-17T15:49:16.575Z,12.66
2022-11-17T15:51:44.355Z,12.70
2022-11-17T15:54:16.718Z,12.59
2022-11-17T15:56:47.448Z,12.68
2022-11-17T15:59:16.819Z,12.72
2022-11-17T16:01:44.797Z,12.65
2022-11-17T16:04:15.568Z,12.57
2022-11-17T16:06:44.500Z,12.61
2022-11-17T16:09:13.524Z,12.50
2022-11-17T16:11:41.247Z,12.50
2022-11-17T16:14:08.533Z,12.46
2022-11-17T16:16:37.470Z,12.36
2022-11-17T16:19:05.772Z,12.18
2022-11-17T16:21:33.004Z,12.15
2022-11-17T16:24:04.572Z,12.10
2022-11-17T16:26:31.773Z,12.20
2022-11-17T16:29:04.765Z,12.21
2022-11-17T16:31:34.003Z,12.24
2022-11-17T16:34:12.291Z,12.28
2022-11-17T16:36:41.619Z,12.21
2022-11-17T16:39:13.870Z,12.18
2022-11-17T16:41:43.036Z,12.01
2022-11-17T16:44:12.264Z,12.07
2022-11-17T16:46:42.817Z,12.00
2022-11-17T16:49:13.230Z,11.72
2022-11-17T16:51:46.185Z,11.77
2022-11-17T16:54:14.106Z,11.87
2022-11-17T16:56:41.109Z,11.89
2022-11-17T16:59:09.376Z,11.87
2022-11-17T17:01:36.454Z,11.86
2022-11-17T17:04:06.569Z,11.84
2022-11-17T17:06:34.755Z,11.85
2022-11-17T17:09:04.523Z,11.61
2022-11-17T17:11:34.165Z,11.31
2022-11-17T17:14:05.600Z,11.40
2022-11-17T17:16:35.039Z,11.43
2022-11-17T17:19:04.499Z,11.06
2022-11-17T17:21:32.772Z,11.02
2022-11-17T17:24:00.117Z,11.08
2022-11-17T17:26:29.539Z,11.03
2022-11-17T17:29:00.231Z,11.03
2022-11-17T17:31:32.205Z,11.06
2022-11-17T17:34:02.412Z,11.23
2022-11-17T17:36:30.551Z,11.27
2022-11-17T17:39:01.820Z,11.35
2022-11-17T17:41:34.369Z,11.14
2022-11-17T17:44:04.111Z,11.24
2022-11-17T17:46:33.739Z,11.20
2022-11-17T17:49:00.696Z,11.19
2022-11-17T17:51:29.252Z,11.18
2022-11-17T17:53:58.622Z,11.12
2022-11-17T17:56:25.864Z,11.22
2022-11-17T17:58:57.033Z,11.28
2022-11-17T18:01:28.978Z,11.19
2022-11-17T18:04:04.880Z,10.87
2022-11-17T18:06:41.607Z,11.09
2022-11-17T18:09:14.707Z,11.04
2022-11-17T18:11:47.991Z,11.10
2022-11-17T18:14:19.624Z,11.21
2022-11-17T18:16:46.704Z,11.16
2022-11-17T18:19:15.392Z,10.89
2022-11-17T18:21:43.399Z,10.83
2022-11-17T18:24:11.609Z,10.63
2022-11-17T18:26:40.900Z,10.54
2022-11-17T18:29:12.839Z,10.58
2022-11-17T18:31:39.844Z,10.65
2022-11-17T18:34:13.190Z,10.82
2022-11-17T18:36:40.646Z,10.52
2022-11-17T18:39:07.908Z,10.60
2022-11-17T18:41:35.995Z,9.83
2022-11-17T18:44:03.112Z,10.33
2022-11-17T18:46:32.555Z,10.39
2022-11-17T18:49:02.268Z,10.42
2022-11-17T18:51:31.454Z,10.39
2022-11-17T18:54:01.377Z,10.52
2022-11-17T18:56:32.030Z,10.54
2022-11-17T18:58:59.522Z,10.64
2022-11-17T19:01:28.860Z,10.67
2022-11-17T19:03:57.955Z,10.68
2022-11-17T19:06:25.836Z,10.43
2022-11-17T19:08:56.521Z,10.29
2022-11-17T19:11:23.682Z,10.39
2022-11-17T19:13:51.685Z,10.48
2022-11-17T19:16:24.834Z,10.48
2022-11-17T19:18:54.179Z,10.52
2022-11-17T19:21:26.792Z,10.65
2022-11-17T19:23:57.348Z,10.44
2022-11-17T19:26:29.566Z,10.47
2022-11-17T19:29:00.100Z,10.41
2022-11-17T19:31:28.266Z,10.43
2022-11-17T19:33:58.037Z,10.25
2022-11-17T19:36:30.420Z,10.27
2022-11-17T19:38:59.677Z,10.21
2022-11-17T19:41:29.213Z,10.06
2022-11-17T19:43:58.433Z,9.91
2022-11-17T19:46:28.959Z,9.79
2022-11-17T19:48:59.655Z,9.77
2022-11-17T19:51:29.416Z,9.80
2022-11-17T19:53:58.796Z,9.82
2022-11-17T19:56:26.883Z,9.89
2022-11-17T19:58:54.289Z,9.86
2022-11-17T20:01:24.171Z,9.80
2022-11-17T20:03:53.229Z,9.89
2022-11-17T20:06:25.152Z,9.76
2022-11-17T20:08:52.210Z,9.83
2022-11-17T20:11:23.350Z,9.81
2022-11-17T20:13:50.810Z,9.74
2022-11-17T20:16:21.573Z,9.84
2022-11-17T20:18:51.030Z,9.93
2022-11-17T20:21:18.963Z,9.99
2022-11-17T20:23:46.830Z,10.00
2022-11-17T20:26:18.794Z,10.18
2022-11-17T20:28:46.264Z,10.23
2022-11-17T20:31:21.517Z,10.26
2022-11-17T20:33:52.067Z,10.23
2022-11-17T20:36:20.934Z,10.22
2022-11-17T20:39:02.138Z,10.16
2022-11-17T20:41:30.223Z,10.16
2022-11-17T20:43:58.830Z,10.25
2022-11-17T20:46:26.353Z,10.19
2022-11-17T20:48:53.663Z,10.30
2022-11-17T20:51:23.315Z,10.31
2022-11-17T20:53:51.011Z,10.34
2022-11-17T20:56:18.839Z,10.35
2022-11-17T20:58:45.814Z,10.36
2022-11-17T21:01:20.675Z,10.17
2022-11-17T21:03:47.861Z,10.19
2022-11-17T21:06:16.014Z,10.24
2022-11-17T21:08:44.816Z,10.20
2022-11-17T21:11:32.905Z,10.09
2022-11-17T21:14:00.686Z,9.88
2022-11-17T21:16:27.871Z,9.97
2022-11-17T21:18:58.082Z,10.00
2022-11-17T21:21:28.923Z,10.02
2022-11-17T21:23:57.537Z,10.04
2022-11-17T21:26:24.797Z,9.81
2022-11-17T21:28:52.246Z,9.96
2022-11-17T21:31:22.322Z,9.77
2022-11-17T21:33:53.846Z,9.79
2022-11-17T21:36:22.201Z,9.87
2022-11-17T21:38:49.438Z,9.98
2022-11-17T21:41:25.178Z,10.03
2022-11-17T21:43:53.359Z,9.95
2022-11-17T21:46:25.031Z,10.06
2022-11-17T21:48:52.991Z,9.95
2022-11-17T21:51:35.355Z,10.11
2022-11-17T21:54:04.457Z,10.18
2022-11-17T21:56:32.229Z,10.13
2022-11-17T21:59:01.987Z,10.19
2022-11-17T22:01:29.656Z,10.02
2022-11-17T22:03:56.791Z,10.17
2022-11-17T22:06:25.611Z,10.19
2022-11-17T22:08:54.265Z,10.01
2022-11-17T22:11:36.717Z,10.14
2022-11-17T22:14:13.093Z,10.14
2022-11-17T22:16:45.839Z,9.97
2022-11-17T22:19:14.579Z,9.90
2022-11-17T22:21:43.091Z,9.76
2022-11-17T22:24:12.275Z,9.78
2022-11-17T22:26:41.327Z,9.68
2022-11-17T22:29:15.547Z,9.54
2022-11-17T22:31:42.922Z,9.57
2022-11-17T22:34:10.031Z,9.70
2022-11-17T22:36:36.874Z,9.81
2022-11-17T22:39:04.160Z,9.93
2022-11-17T22:41:31.381Z,9.86
2022-11-17T22:43:58.711Z,9.84
2022-11-17T22:46:28.058Z,9.63
2022-11-17T22:48:55.069Z,9.55
2022-11-17T22:51:40.579Z,9.66
2022-11-17T22:54:08.164Z,9.87
2022-11-17T22:56:35.944Z,9.90
2022-11-17T22:59:02.952Z,9.99
2022-11-17T23:01:29.831Z,9.99
2022-11-17T23:03:56.659Z,9.95
2022-11-17T23:06:24.276Z,10.01
2022-11-17T23:08:51.217Z,10.05
2022-11-17T23:14:08.022Z,9.95
2022-11-17T23:16:35.944Z,10.11
2022-11-17T23:19:03.720Z,9.73
2022-11-17T23:21:30.583Z,9.79
2022-11-17T23:23:57.403Z,9.76
2022-11-17T23:26:24.401Z,9.64
2022-11-17T23:28:51.270Z,9.57
2022-11-17T23:31:18.499Z,9.64
2022-11-17T23:33:47.347Z,9.68
2022-11-17T23:36:19.961Z,9.78
2022-11-17T23:38:48.282Z,9.77
2022-11-17T23:41:17.144Z,9.80
2022-11-17T23:43:43.984Z,9.78
2022-11-17T23:46:15.109Z,9.79
2022-11-17T23:48:43.012Z,9.74
2022-11-17T23:51:18.827Z,9.64
2022-11-17T23:53:46.965Z,9.71
2022-11-17T23:56:13.879Z,9.74
2022-11-17T23:58:41.328Z,9.67
